createdAt,value
2023-05-17T00:02:03.366Z,10.90
2023-05-17T00:04:30.327Z,10.47
2023-05-17T00:06:57.250Z,12.77
2023-05-17T00:09:24.154Z,9.80
2023-05-17T00:11:51.134Z,8.90
2023-05-17T00:14:18.121Z,9.17
2023-05-17T00:16:45.211Z,8.83
2023-05-17T00:19:12.277Z,8.53
2023-05-17T00:21:39.569Z,13.03
2023-05-17T00:24:06.858Z,9.37
2023-05-17T00:26:33.780Z,8.90
2023-05-17T00:29:00.871Z,8.30
2023-05-17T00:31:27.969Z,9.97
2023-05-17T00:33:54.886Z,8.33
2023-05-17T00:36:21.759Z,10.87
2023-05-17T00:38:48.625Z,7.63
2023-05-17T00:41:15.529Z,8.97
2023-05-17T00:43:42.392Z,7.17
2023-05-17T00:46:09.345Z,7.03
2023-05-17T00:48:36.386Z,11.73
2023-05-17T00:51:03.750Z,9.80
2023-05-17T00:53:30.869Z,7.07
2023-05-17T00:55:58.122Z,8.10
2023-05-17T00:58:25.437Z,10.13
2023-05-17T01:00:52.649Z,9.60
2023-05-17T01:03:19.749Z,9.20
2023-05-17T01:05:46.719Z,8.87
2023-05-17T01:08:13.671Z,8.47
2023-05-17T01:11:13.609Z,9.17
2023-05-17T01:14:00.344Z,6.87
2023-05-17T01:16:54.778Z,7.40
2023-05-17T01:19:33.640Z,10.47
2023-05-17T01:22:36.784Z,9.80
2023-05-17T01:25:22.158Z,7.30
2023-05-17T01:27:51.012Z,13.30
2023-05-17T01:30:20.729Z,9.03
2023-05-17T01:32:47.860Z,9.43
2023-05-17T01:35:16.029Z,12.13
2023-05-17T01:37:43.017Z,8.50
2023-05-17T01:40:10.990Z,8.13
2023-05-17T01:42:42.076Z,8.57
2023-05-17T01:46:02.838Z,8.23
2023-05-17T01:48:40.767Z,10.50
2023-05-17T01:51:12.279Z,7.37
2023-05-17T01:54:03.219Z,9.73
2023-05-17T01:56:35.349Z,11.60
2023-05-17T01:59:06.880Z,8.27
2023-05-17T02:01:35.313Z,9.33
2023-05-17T02:04:02.937Z,15.00
2023-05-17T02:06:29.983Z,9.90
2023-05-17T02:08:56.858Z,13.70
2023-05-17T02:11:23.734Z,9.13
2023-05-17T02:13:50.614Z,9.40
2023-05-17T02:16:17.545Z,10.43
2023-05-17T02:18:44.477Z,9.83
2023-05-17T02:21:11.378Z,11.30
2023-05-17T02:23:38.367Z,14.53
2023-05-17T02:26:05.278Z,14.90
2023-05-17T02:28:32.151Z,11.47
2023-05-17T02:30:59.074Z,10.90
2023-05-17T02:33:26.074Z,13.00
2023-05-17T02:35:52.976Z,15.13
2023-05-17T02:38:19.950Z,13.13
2023-05-17T02:40:46.775Z,12.50
2023-05-17T02:43:13.716Z,11.00
2023-05-17T02:45:40.561Z,13.07
2023-05-17T02:48:07.633Z,11.07
2023-05-17T02:50:34.532Z,11.17
2023-05-17T02:53:01.449Z,10.67
2023-05-17T02:55:28.652Z,11.43
2023-05-17T02:57:55.835Z,14.67
2023-05-17T03:00:22.753Z,19.63
2023-05-17T03:02:49.822Z,13.17
2023-05-17T03:05:16.758Z,12.43
2023-05-17T03:07:43.665Z,11.67
2023-05-17T03:10:10.843Z,13.73
2023-05-17T03:12:37.749Z,18.67
2023-05-17T03:15:05.155Z,12.03
2023-05-17T03:17:32.271Z,14.27
2023-05-17T03:19:59.299Z,13.97
2023-05-17T03:22:26.234Z,12.40
2023-05-17T03:24:53.079Z,13.87
2023-05-17T03:27:20.006Z,17.00
2023-05-17T03:29:46.915Z,16.00
2023-05-17T03:32:15.816Z,14.23
2023-05-17T03:34:42.728Z,15.53
2023-05-17T03:37:09.603Z,16.07
2023-05-17T03:39:36.542Z,17.43
2023-05-17T03:42:03.637Z,15.80
2023-05-17T03:44:30.498Z,19.33
2023-05-17T03:46:57.378Z,16.43
2023-05-17T03:49:24.301Z,15.93
2023-05-17T03:51:51.301Z,16.57
2023-05-17T03:54:18.202Z,14.13
2023-05-17T03:56:45.117Z,12.70
2023-05-17T03:59:12.004Z,15.10
2023-05-17T04:01:38.917Z,14.63
2023-05-17T04:04:06.034Z,13.33
2023-05-17T04:06:33.025Z,17.30
2023-05-17T04:09:00.149Z,14.47
2023-05-17T04:11:27.226Z,16.00
2023-05-17T04:13:57.165Z,16.27
2023-05-17T04:16:24.025Z,14.17
2023-05-17T04:18:51.068Z,17.20
2023-05-17T04:21:19.061Z,17.97
2023-05-17T04:23:46.096Z,13.40
2023-05-17T04:26:12.978Z,16.97
2023-05-17T04:28:39.999Z,13.03
2023-05-17T04:31:10.324Z,14.37
2023-05-17T04:33:37.495Z,15.47
2023-05-17T04:36:04.610Z,14.97
2023-05-17T04:38:31.569Z,15.43
2023-05-17T04:41:05.585Z,14.50
2023-05-17T04:43:33.783Z,12.43
2023-05-17T04:46:01.193Z,12.60
2023-05-17T04:48:31.829Z,12.73
2023-05-17T04:51:03.819Z,20.17
2023-05-17T04:53:31.952Z,18.20
2023-05-17T04:55:59.686Z,15.33
2023-05-17T04:58:26.587Z,13.43
2023-05-17T05:00:53.490Z,15.47
2023-05-17T05:03:20.397Z,14.07
2023-05-17T05:05:47.263Z,16.70
2023-05-17T05:08:14.176Z,12.50
2023-05-17T05:10:41.078Z,14.83
2023-05-17T05:13:08.011Z,21.80
2023-05-17T05:15:34.914Z,14.40
2023-05-17T05:18:01.954Z,15.00
2023-05-17T05:20:28.978Z,13.27
2023-05-17T05:22:55.856Z,17.47
2023-05-17T05:25:22.742Z,13.87
2023-05-17T05:27:49.692Z,12.30
2023-05-17T05:30:16.734Z,19.80
2023-05-17T05:32:43.696Z,15.00
2023-05-17T05:35:10.731Z,13.20
2023-05-17T05:37:37.611Z,15.23
2023-05-17T05:40:05.228Z,15.60
2023-05-17T05:42:32.171Z,11.73
2023-05-17T05:44:59.065Z,11.97
2023-05-17T05:47:26.198Z,15.57
2023-05-17T05:49:53.119Z,15.27
2023-05-17T05:52:20.015Z,12.83
2023-05-17T05:54:46.895Z,18.03
2023-05-17T05:57:13.968Z,11.20
2023-05-17T05:59:40.883Z,11.00
2023-05-17T06:02:07.836Z,11.70
2023-05-17T06:04:44.691Z,10.00
2023-05-17T06:07:14.003Z,15.53
2023-05-17T06:09:42.542Z,7.83
2023-05-17T06:12:09.932Z,11.33
2023-05-17T06:14:36.882Z,7.37
2023-05-17T06:17:05.312Z,8.63
2023-05-17T06:19:32.454Z,8.67
2023-05-17T06:21:59.698Z,10.53
2023-05-17T06:24:26.583Z,7.83
2023-05-17T06:26:53.475Z,10.87
2023-05-17T06:29:20.332Z,7.57
2023-05-17T06:31:47.389Z,6.20
2023-05-17T06:34:14.356Z,12.03
2023-05-17T06:36:41.251Z,13.60
2023-05-17T06:39:08.201Z,6.93
2023-05-17T06:41:35.160Z,6.20
2023-05-17T06:44:02.150Z,6.07
2023-05-17T06:46:29.080Z,8.07
2023-05-17T06:48:56.174Z,7.50
2023-05-17T06:51:23.751Z,6.70
2023-05-17T06:53:50.708Z,6.80
2023-05-17T06:56:17.671Z,9.13
2023-05-17T06:58:44.649Z,11.13
2023-05-17T07:01:13.619Z,7.50
2023-05-17T07:03:40.552Z,5.60
2023-05-17T07:06:07.733Z,6.90
2023-05-17T07:08:34.641Z,8.00
2023-05-17T07:11:01.557Z,9.33
2023-05-17T07:13:28.493Z,6.50
2023-05-17T07:15:55.489Z,7.80
2023-05-17T07:18:22.676Z,6.00
2023-05-17T07:20:49.637Z,4.40
2023-05-17T07:23:16.601Z,5.93
2023-05-17T07:25:44.187Z,5.23
2023-05-17T07:28:10.996Z,6.13
2023-05-17T07:30:37.887Z,5.30
2023-05-17T07:33:04.775Z,5.67
2023-05-17T07:35:31.853Z,4.67
2023-05-17T07:37:58.792Z,4.17
2023-05-17T07:40:25.773Z,5.33
2023-05-17T07:42:52.703Z,4.80
2023-05-17T07:45:19.844Z,5.63
2023-05-17T07:47:46.842Z,6.20
2023-05-17T07:50:14.200Z,7.50
2023-05-17T07:52:41.103Z,6.27
2023-05-17T07:55:09.016Z,11.20
2023-05-17T07:57:35.917Z,9.40
2023-05-17T08:00:02.899Z,8.20
2023-05-17T08:02:29.965Z,6.73
2023-05-17T08:04:57.062Z,6.30
2023-05-17T08:07:24.162Z,6.47
2023-05-17T08:09:51.175Z,6.50
2023-05-17T08:12:19.880Z,6.53
2023-05-17T08:14:46.833Z,6.63
2023-05-17T08:17:13.750Z,5.83
2023-05-17T08:19:40.840Z,6.37
2023-05-17T08:22:07.706Z,9.60
2023-05-17T08:24:34.601Z,5.33
2023-05-17T08:27:01.552Z,7.07
2023-05-17T08:29:28.508Z,5.63
2023-05-17T08:31:55.472Z,6.37
2023-05-17T08:34:22.393Z,7.93
2023-05-17T08:36:49.344Z,6.27
2023-05-17T08:39:16.351Z,5.40
2023-05-17T08:41:43.345Z,5.63
2023-05-17T08:44:11.120Z,6.57
2023-05-17T08:46:39.382Z,5.73
2023-05-17T08:49:07.217Z,5.80
2023-05-17T08:51:36.554Z,5.47
2023-05-17T08:54:03.491Z,4.53
2023-05-17T08:56:30.899Z,5.07
2023-05-17T08:58:58.932Z,4.70
2023-05-17T09:01:27.574Z,7.80
2023-05-17T09:03:56.092Z,5.33
2023-05-17T09:06:24.386Z,6.27
2023-05-17T09:08:52.740Z,5.27
2023-05-17T09:11:29.044Z,8.30
2023-05-17T09:14:03.936Z,6.80
2023-05-17T09:16:32.808Z,4.40
2023-05-17T09:19:01.612Z,7.20
2023-05-17T09:21:30.643Z,5.30
2023-05-17T09:24:06.280Z,4.43
2023-05-17T09:26:46.580Z,4.97
2023-05-17T09:29:15.941Z,3.30
2023-05-17T09:31:44.637Z,3.90
2023-05-17T09:34:12.458Z,4.53
2023-05-17T09:36:43.467Z,3.97
2023-05-17T09:39:11.583Z,5.47
2023-05-17T09:41:47.392Z,5.00
2023-05-17T09:44:15.248Z,7.53
2023-05-17T09:46:47.885Z,4.03
2023-05-17T09:49:17.169Z,3.70
2023-05-17T09:51:47.876Z,3.70
2023-05-17T09:54:14.789Z,3.33
2023-05-17T09:56:41.782Z,3.37
2023-05-17T09:59:14.736Z,2.87
2023-05-17T10:01:43.828Z,5.10
2023-05-17T10:04:12.158Z,4.67
2023-05-17T10:06:46.526Z,3.43
2023-05-17T10:09:19.043Z,2.80
2023-05-17T10:11:47.384Z,3.40
2023-05-17T10:14:17.955Z,4.97
2023-05-17T10:16:45.638Z,3.10
2023-05-17T10:19:13.894Z,3.10
2023-05-17T10:21:42.018Z,3.73
2023-05-17T10:24:11.739Z,5.70
2023-05-17T10:26:39.398Z,7.13
2023-05-17T10:29:08.081Z,3.30
2023-05-17T10:31:35.049Z,5.30
2023-05-17T10:34:04.303Z,3.30
2023-05-17T10:36:31.821Z,3.13
2023-05-17T10:38:59.703Z,4.37
2023-05-17T10:41:34.069Z,5.70
2023-05-17T10:44:06.445Z,3.03
2023-05-17T10:46:33.926Z,4.93
2023-05-17T10:49:02.014Z,3.27
2023-05-17T10:51:38.016Z,3.67
2023-05-17T10:54:14.476Z,2.77
2023-05-17T10:56:51.952Z,4.73
2023-05-17T10:59:25.560Z,3.27
2023-05-17T11:02:03.619Z,2.57
2023-05-17T11:04:39.877Z,4.50
2023-05-17T11:07:21.380Z,7.90
2023-05-17T11:10:01.236Z,3.27
2023-05-17T11:12:38.552Z,3.57
2023-05-17T11:15:13.312Z,3.00
2023-05-17T11:17:43.115Z,3.20
2023-05-17T11:20:17.145Z,2.53
2023-05-17T11:22:55.231Z,3.57
2023-05-17T11:25:22.362Z,2.93
2023-05-17T11:27:52.203Z,3.37
2023-05-17T11:30:25.612Z,4.70
2023-05-17T11:33:00.332Z,5.60
2023-05-17T11:35:32.187Z,3.57
2023-05-17T11:38:22.091Z,3.70
2023-05-17T11:40:56.259Z,3.00
2023-05-17T11:43:26.036Z,3.10
2023-05-17T11:45:59.075Z,2.53
2023-05-17T11:48:27.059Z,3.67
2023-05-17T11:50:55.840Z,2.90
2023-05-17T11:53:25.495Z,4.83
2023-05-17T11:55:53.222Z,2.33
2023-05-17T11:58:25.102Z,4.70
2023-05-17T12:00:57.691Z,4.10
2023-05-17T12:03:29.958Z,3.07
2023-05-17T12:06:07.418Z,7.23
2023-05-17T12:08:35.948Z,5.30
2023-05-17T12:11:04.028Z,4.70
2023-05-17T12:13:33.131Z,3.53
2023-05-17T12:16:08.234Z,3.53
2023-05-17T12:18:44.557Z,4.97
2023-05-17T12:21:15.221Z,2.33
2023-05-17T12:23:45.370Z,4.80
2023-05-17T12:26:14.118Z,5.47
2023-05-17T12:28:57.786Z,3.03
2023-05-17T12:31:48.539Z,3.33
2023-05-17T12:34:17.787Z,3.70
2023-05-17T12:36:45.117Z,3.63
2023-05-17T12:39:14.158Z,3.40
2023-05-17T12:41:42.324Z,4.17
2023-05-17T12:46:40.459Z,5.50
2023-05-17T12:49:09.353Z,4.07
2023-05-17T12:51:47.058Z,4.10
2023-05-17T12:54:25.399Z,5.60
2023-05-17T12:56:52.815Z,4.57
2023-05-17T12:59:20.642Z,4.73
2023-05-17T13:01:49.502Z,3.90
2023-05-17T13:04:19.947Z,4.33
2023-05-17T13:06:54.412Z,4.83
2023-05-17T13:09:24.386Z,4.37
2023-05-17T13:11:52.189Z,6.97
2023-05-17T13:14:35.531Z,4.90
2023-05-17T13:17:05.112Z,8.10
2023-05-17T13:19:32.016Z,4.07
2023-05-17T13:21:59.018Z,5.77
2023-05-17T13:24:27.377Z,4.00
2023-05-17T13:26:54.744Z,3.87
2023-05-17T13:29:31.905Z,4.70
2023-05-17T13:32:07.420Z,3.90
2023-05-17T13:34:34.842Z,4.63
2023-05-17T13:37:01.718Z,5.90
2023-05-17T13:39:28.638Z,5.10
2023-05-17T13:41:55.596Z,3.43
2023-05-17T13:44:22.990Z,6.03
2023-05-17T13:46:49.827Z,3.30
2023-05-17T13:49:17.254Z,2.43
2023-05-17T13:51:44.464Z,4.40
2023-05-17T13:54:11.385Z,4.67
2023-05-17T13:56:38.317Z,5.27
2023-05-17T13:59:05.376Z,3.00
2023-05-17T14:01:32.336Z,2.57
2023-05-17T14:03:59.298Z,3.00
2023-05-17T14:06:26.727Z,4.07
2023-05-17T14:08:53.676Z,7.17
2023-05-17T14:11:20.557Z,2.80
2023-05-17T14:13:47.434Z,3.80
2023-05-17T14:16:14.850Z,2.60
2023-05-17T14:18:41.965Z,2.50
2023-05-17T14:21:09.172Z,3.23
2023-05-17T14:23:36.079Z,2.97
2023-05-17T14:26:03.064Z,3.33
2023-05-17T14:28:29.925Z,3.33
2023-05-17T14:30:56.789Z,6.50
2023-05-17T14:33:23.810Z,5.47
2023-05-17T14:35:51.043Z,3.97
2023-05-17T14:38:18.106Z,4.53
2023-05-17T14:40:44.917Z,3.20
2023-05-17T14:43:11.841Z,4.27
2023-05-17T14:45:38.718Z,4.20
2023-05-17T14:48:05.968Z,3.97
2023-05-17T14:50:35.059Z,4.23
2023-05-17T14:53:01.962Z,3.50
2023-05-17T14:55:29.132Z,4.00
2023-05-17T14:57:56.968Z,2.73
2023-05-17T15:00:24.713Z,4.20
2023-05-17T15:02:51.620Z,4.80
2023-05-17T15:05:18.783Z,3.13
2023-05-17T15:07:47.053Z,4.50
2023-05-17T15:10:14.012Z,4.50
2023-05-17T15:12:40.946Z,5.47
2023-05-17T15:15:09.227Z,3.40
2023-05-17T15:17:36.157Z,3.33
2023-05-17T15:20:03.195Z,3.20
2023-05-17T15:22:30.150Z,4.70
2023-05-17T15:24:57.108Z,3.53
2023-05-17T15:27:24.066Z,3.23
2023-05-17T15:29:50.947Z,3.40
2023-05-17T15:32:17.915Z,4.80
2023-05-17T15:34:44.825Z,2.57
2023-05-17T15:37:11.725Z,3.00
2023-05-17T15:39:38.606Z,2.73
2023-05-17T15:42:06.791Z,3.33
2023-05-17T15:44:33.692Z,2.40
2023-05-17T15:47:02.940Z,3.03
2023-05-17T15:49:30.474Z,3.20
2023-05-17T15:51:57.398Z,2.70
2023-05-17T15:54:24.314Z,3.10
2023-05-17T15:56:51.239Z,3.73
2023-05-17T15:59:18.172Z,4.23
2023-05-17T16:01:45.076Z,3.23
2023-05-17T16:04:13.334Z,2.43
2023-05-17T16:06:40.796Z,4.60
2023-05-17T16:09:07.724Z,15.23
2023-05-17T16:11:34.637Z,57.40
2023-05-17T16:14:01.494Z,10.20
2023-05-17T16:16:28.359Z,2.80
2023-05-17T16:18:55.477Z,2.90
2023-05-17T16:21:22.449Z,8.17
2023-05-17T16:23:49.375Z,5.00
2023-05-17T16:26:19.174Z,4.40
2023-05-17T16:28:46.144Z,4.70
2023-05-17T16:31:13.039Z,2.80
2023-05-17T16:33:40.312Z,3.23
2023-05-17T16:36:07.759Z,4.10
2023-05-17T16:38:34.703Z,2.97
2023-05-17T16:41:01.655Z,10.70
2023-05-17T16:43:28.907Z,3.57
2023-05-17T16:45:55.777Z,4.70
2023-05-17T16:48:22.780Z,2.50
2023-05-17T16:50:49.837Z,3.27
2023-05-17T16:53:16.795Z,3.03
2023-05-17T16:55:43.657Z,3.03
2023-05-17T16:58:10.641Z,3.30
2023-05-17T17:00:37.739Z,3.10
2023-05-17T17:03:07.360Z,3.20
2023-05-17T17:05:36.035Z,3.10
2023-05-17T17:08:03.075Z,3.63
2023-05-17T17:10:30.211Z,3.17
2023-05-17T17:12:57.432Z,5.60
2023-05-17T17:15:24.615Z,2.90
2023-05-17T17:17:51.628Z,3.90
2023-05-17T17:20:18.650Z,3.13
2023-05-17T17:22:45.547Z,4.97
2023-05-17T17:25:12.388Z,3.70
2023-05-17T17:27:40.635Z,4.47
2023-05-17T17:30:08.499Z,4.90
2023-05-17T17:32:35.601Z,7.73
2023-05-17T17:35:02.720Z,3.97
2023-05-17T17:37:29.555Z,5.10
2023-05-17T17:39:56.434Z,4.30
2023-05-17T17:42:23.316Z,4.73
2023-05-17T17:44:50.185Z,5.37
2023-05-17T17:47:17.243Z,4.20
2023-05-17T17:49:44.296Z,5.60
2023-05-17T17:52:11.205Z,5.20
2023-05-17T17:54:38.168Z,5.03
2023-05-17T17:57:05.381Z,4.37
2023-05-17T17:59:32.431Z,4.90
2023-05-17T18:01:59.606Z,5.03
2023-05-17T18:04:27.477Z,4.60
2023-05-17T18:06:54.997Z,3.60
2023-05-17T18:09:24.050Z,4.67
2023-05-17T18:11:51.000Z,5.77
2023-05-17T18:14:18.081Z,5.20
2023-05-17T18:16:45.187Z,4.40
2023-05-17T18:19:13.152Z,5.33
2023-05-17T18:21:40.501Z,4.40
2023-05-17T18:24:08.706Z,4.53
2023-05-17T18:26:36.090Z,5.73
2023-05-17T18:29:03.766Z,5.07
2023-05-17T18:31:30.954Z,6.03
2023-05-17T18:33:58.197Z,7.33
2023-05-17T18:36:25.777Z,6.30
2023-05-17T18:38:53.238Z,5.13
2023-05-17T18:41:20.937Z,6.47
2023-05-17T18:43:48.479Z,8.30
2023-05-17T18:46:15.637Z,6.40
2023-05-17T18:48:43.247Z,8.90
2023-05-17T18:51:12.246Z,6.07
2023-05-17T18:53:39.956Z,6.20
2023-05-17T18:56:07.052Z,6.43
2023-05-17T18:58:38.612Z,7.00
2023-05-17T19:01:05.520Z,7.80
2023-05-17T19:03:33.055Z,6.80
2023-05-17T19:06:00.103Z,5.73
2023-05-17T19:08:27.427Z,7.00
2023-05-17T19:10:55.228Z,6.27
2023-05-17T19:13:23.039Z,6.40
2023-05-17T19:15:51.221Z,6.60
2023-05-17T19:18:18.411Z,7.20
2023-05-17T19:20:45.309Z,9.40
2023-05-17T19:23:12.879Z,7.23
2023-05-17T19:25:39.943Z,8.27
2023-05-17T19:28:07.247Z,7.93
2023-05-17T19:30:35.195Z,7.17
2023-05-17T19:33:02.430Z,8.30
2023-05-17T19:35:36.328Z,10.10
2023-05-17T19:38:03.198Z,9.07
2023-05-17T19:40:30.218Z,10.73
2023-05-17T19:42:57.298Z,11.07
2023-05-17T19:45:24.308Z,9.33
2023-05-17T19:47:51.238Z,9.70
2023-05-17T19:50:18.432Z,10.20
2023-05-17T19:52:45.804Z,10.03
2023-05-17T19:55:16.946Z,11.73
2023-05-17T19:57:43.834Z,10.33
2023-05-17T20:00:11.360Z,9.47
2023-05-17T20:02:38.398Z,10.60
2023-05-17T20:05:06.305Z,11.73
2023-05-17T20:07:33.235Z,7.83
2023-05-17T20:10:00.253Z,7.43
2023-05-17T20:12:27.385Z,7.93
2023-05-17T20:14:54.615Z,7.90
2023-05-17T20:17:21.487Z,6.90
2023-05-17T20:19:48.358Z,8.57
2023-05-17T20:22:15.273Z,8.00
2023-05-17T20:24:42.234Z,10.90
2023-05-17T20:27:09.167Z,8.33
2023-05-17T20:29:36.073Z,11.40
2023-05-17T20:32:02.969Z,9.93
2023-05-17T20:34:29.934Z,12.43
2023-05-17T20:36:57.277Z,8.60
2023-05-17T20:39:25.191Z,8.70
2023-05-17T20:41:52.040Z,9.97
2023-05-17T20:44:18.990Z,9.63
2023-05-17T20:46:46.552Z,9.77
2023-05-17T20:49:13.632Z,8.93
2023-05-17T20:51:40.649Z,8.37
2023-05-17T20:54:07.588Z,8.27
2023-05-17T20:56:35.628Z,8.10
2023-05-17T20:59:03.621Z,8.93
2023-05-17T21:01:30.497Z,8.17
2023-05-17T21:03:57.795Z,10.80
2023-05-17T21:06:26.154Z,8.73
2023-05-17T21:08:53.056Z,6.80
2023-05-17T21:11:20.122Z,6.97
2023-05-17T21:13:50.258Z,8.00
2023-05-17T21:16:17.852Z,9.10
2023-05-17T21:18:44.785Z,8.47
2023-05-17T21:21:12.951Z,7.10
2023-05-17T21:23:39.994Z,8.57
2023-05-17T21:26:07.568Z,7.43
2023-05-17T21:28:35.373Z,7.57
2023-05-17T21:31:02.456Z,7.20
2023-05-17T21:33:29.843Z,6.77
2023-05-17T21:35:56.893Z,6.93
2023-05-17T21:38:23.856Z,8.30
2023-05-17T21:40:50.894Z,7.40
2023-05-17T21:43:17.889Z,6.90
2023-05-17T21:45:44.879Z,8.70
2023-05-17T21:48:11.857Z,8.23
2023-05-17T21:50:38.859Z,8.03
2023-05-17T21:53:05.730Z,8.03
2023-05-17T21:55:40.992Z,11.70
2023-05-17T21:58:13.151Z,8.63
2023-05-17T22:00:40.031Z,9.00
2023-05-17T22:03:07.110Z,7.73
2023-05-17T22:05:34.168Z,8.30
2023-05-17T22:08:01.191Z,8.17
2023-05-17T22:10:28.267Z,8.60
2023-05-17T22:12:55.319Z,8.37
2023-05-17T22:15:22.297Z,9.17
2023-05-17T22:17:52.802Z,8.33
2023-05-17T22:20:20.877Z,9.00
2023-05-17T22:22:47.691Z,10.77
2023-05-17T22:25:15.826Z,8.60
2023-05-17T22:27:44.144Z,9.10
2023-05-17T22:30:11.538Z,8.03
2023-05-17T22:32:38.974Z,8.53
2023-05-17T22:35:06.195Z,9.03
2023-05-17T22:37:33.186Z,8.37
2023-05-17T22:40:00.246Z,9.10
2023-05-17T22:42:27.260Z,7.27
2023-05-17T22:44:54.249Z,8.10
2023-05-17T22:47:21.269Z,8.67
2023-05-17T22:49:48.520Z,8.13
2023-05-17T22:52:15.367Z,7.10
2023-05-17T22:54:42.373Z,8.93
2023-05-17T22:57:09.249Z,7.93
2023-05-17T22:59:36.215Z,7.70
2023-05-17T23:02:03.197Z,8.47
2023-05-17T23:04:30.424Z,7.93
2023-05-17T23:06:58.799Z,8.50
2023-05-17T23:09:25.702Z,7.60
2023-05-17T23:11:52.652Z,8.27
2023-05-17T23:14:19.610Z,8.10
2023-05-17T23:16:46.595Z,9.27
2023-05-17T23:19:13.517Z,8.73
2023-05-17T23:21:40.534Z,7.87
2023-05-17T23:24:07.808Z,8.73
2023-05-17T23:26:35.194Z,7.33
2023-05-17T23:29:02.088Z,7.00
2023-05-17T23:31:29.113Z,7.37
2023-05-17T23:33:55.965Z,6.73
2023-05-17T23:36:22.863Z,7.70
2023-05-17T23:38:49.760Z,8.20
2023-05-17T23:41:16.797Z,7.90
2023-05-17T23:43:45.112Z,7.40
2023-05-17T23:46:12.112Z,8.27
2023-05-17T23:48:39.413Z,7.67
2023-05-17T23:51:06.435Z,7.60
2023-05-17T23:53:33.250Z,6.97
2023-05-17T23:56:00.144Z,7.80
2023-05-17T23:58:26.997Z,7.50
